Terminal Aerodrome Forecast
Issued by NWS Central Illinois

Home | Current Version | Previous Version | Text Only | Print | Product List | Glossary On
Versions: 1 2 3 4 5 6 7 8 9 10
919
FTUS43 KILX 231729
TAFPIA
TAF
KPIA 231729Z 2318/2418 06010KT P6SM SKC
     FM240000 04004KT P6SM SKC
     FM241400 14006KT P6SM SKC=

USA.gov is the U.S. government's official web portal to all federal, state and local government web resources and services.